Terminal Aerodrome Forecast
Issued by NWS

Home | Current Version | Previous Version | Text Only | Print | Product List | Glossary On
Versions: 1 2 3 4 5 6 7 8 9 10 11 12 13
000
FTAK31 PAFA 172338
TAFABT
TAF
PABT 172338Z 1800/1824 00000KT P6SM FEW070 SCT090
     FM180900 VRB03KT 2SM BR SCT002 SCT025
     FM182100 VRB03KT 6SM BR SCT002=

USA.gov is the U.S. government's official web portal to all federal, state and local government web resources and services.